sensor_id;sensor_type;location;lat;lon;timestamp;P1;durP1;ratioP1;P2;durP2;ratioP2
10811;SDS011;5458;51.496;7.334;2023-03-14T00:01:12;4.93;;;1.80;;
10811;SDS011;5458;51.496;7.334;2023-03-14T00:03:40;3.83;;;1.73;;
10811;SDS011;5458;51.496;7.334;2023-03-14T00:06:06;6.63;;;2.15;;
10811;SDS011;5458;51.496;7.334;2023-03-14T00:08:32;4.38;;;1.38;;
10811;SDS011;5458;51.496;7.334;2023-03-14T00:11:03;4.35;;;2.05;;
10811;SDS011;5458;51.496;7.334;2023-03-14T00:13:33;3.08;;;1.80;;
10811;SDS011;5458;51.496;7.334;2023-03-14T00:16:05;3.63;;;1.92;;
10811;SDS011;5458;51.496;7.334;2023-03-14T00:18:33;4.47;;;1.77;;
10811;SDS011;5458;51.496;7.334;2023-03-14T00:20:59;4.90;;;1.63;;
10811;SDS011;5458;51.496;7.334;2023-03-14T00:23:29;3.08;;;1.63;;
10811;SDS011;5458;51.496;7.334;2023-03-14T00:26:02;5.13;;;1.73;;
10811;SDS011;5458;51.496;7.334;2023-03-14T00:28:39;6.70;;;2.03;;
10811;SDS011;5458;51.496;7.334;2023-03-14T00:31:06;3.38;;;1.83;;
10811;SDS011;5458;51.496;7.334;2023-03-14T00:33:33;4.30;;;1.73;;
10811;SDS011;5458;51.496;7.334;2023-03-14T00:36:01;4.25;;;1.70;;
10811;SDS011;5458;51.496;7.334;2023-03-14T00:38:33;2.95;;;1.85;;
10811;SDS011;5458;51.496;7.334;2023-03-14T00:41:03;4.57;;;1.60;;
10811;SDS011;5458;51.496;7.334;2023-03-14T00:43:33;4.53;;;1.50;;
10811;SDS011;5458;51.496;7.334;2023-03-14T00:45:59;6.68;;;1.90;;
10811;SDS011;5458;51.496;7.334;2023-03-14T00:48:25;3.97;;;1.80;;
10811;SDS011;5458;51.496;7.334;2023-03-14T00:50:50;4.82;;;1.98;;
10811;SDS011;5458;51.496;7.334;2023-03-14T00:53:16;4.72;;;1.65;;
10811;SDS011;5458;51.496;7.334;2023-03-14T00:55:42;4.85;;;2.35;;
10811;SDS011;5458;51.496;7.334;2023-03-14T00:58:09;3.60;;;1.60;;
10811;SDS011;5458;51.496;7.334;2023-03-14T01:00:39;5.93;;;2.00;;
10811;SDS011;5458;51.496;7.334;2023-03-14T01:03:05;4.75;;;1.20;;
10811;SDS011;5458;51.496;7.334;2023-03-14T01:05:32;5.43;;;1.40;;
10811;SDS011;5458;51.496;7.334;2023-03-14T01:07:58;10.82;;;2.63;;
10811;SDS011;5458;51.496;7.334;2023-03-14T01:10:24;5.72;;;1.52;;
10811;SDS011;5458;51.496;7.334;2023-03-14T01:12:50;3.05;;;1.40;;
10811;SDS011;5458;51.496;7.334;2023-03-14T01:15:15;3.88;;;1.23;;
10811;SDS011;5458;51.496;7.334;2023-03-14T01:17:41;2.63;;;0.80;;
10811;SDS011;5458;51.496;7.334;2023-03-14T01:20:07;1.10;;;0.90;;
10811;SDS011;5458;51.496;7.334;2023-03-14T01:22:35;2.50;;;0.88;;
10811;SDS011;5458;51.496;7.334;2023-03-14T01:25:03;2.05;;;1.05;;
10811;SDS011;5458;51.496;7.334;2023-03-14T01:27:29;0.93;;;0.80;;
10811;SDS011;5458;51.496;7.334;2023-03-14T01:29:55;1.52;;;0.98;;
10811;SDS011;5458;51.496;7.334;2023-03-14T01:32:21;4.32;;;1.25;;
10811;SDS011;5458;51.496;7.334;2023-03-14T01:34:46;1.95;;;1.30;;
10811;SDS011;5458;51.496;7.334;2023-03-14T01:37:12;4.25;;;1.30;;
10811;SDS011;5458;51.496;7.334;2023-03-14T01:39:38;4.30;;;1.20;;
10811;SDS011;5458;51.496;7.334;2023-03-14T01:42:03;4.90;;;1.35;;
10811;SDS011;5458;51.496;7.334;2023-03-14T01:44:46;3.95;;;0.98;;
10811;SDS011;5458;51.496;7.334;2023-03-14T01:47:22;1.55;;;1.02;;
10811;SDS011;5458;51.496;7.334;2023-03-14T01:49:50;1.65;;;1.10;;
10811;SDS011;5458;51.496;7.334;2023-03-14T01:54:52;3.80;;;1.83;;
10811;SDS011;5458;51.496;7.334;2023-03-14T01:57:31;4.55;;;2.30;;
10811;SDS011;5458;51.496;7.334;2023-03-14T02:00:15;5.38;;;1.75;;
10811;SDS011;5458;51.496;7.334;2023-03-14T02:02:44;2.90;;;1.20;;
10811;SDS011;5458;51.496;7.334;2023-03-14T02:05:12;4.43;;;1.75;;
10811;SDS011;5458;51.496;7.334;2023-03-14T02:07:49;4.63;;;1.52;;
10811;SDS011;5458;51.496;7.334;2023-03-14T02:10:17;4.25;;;1.48;;
10811;SDS011;5458;51.496;7.334;2023-03-14T02:12:46;2.45;;;1.45;;
10811;SDS011;5458;51.496;7.334;2023-03-14T02:15:13;4.03;;;1.25;;
10811;SDS011;5458;51.496;7.334;2023-03-14T02:17:40;4.28;;;1.83;;
10811;SDS011;5458;51.496;7.334;2023-03-14T02:22:44;4.93;;;1.50;;
10811;SDS011;5458;51.496;7.334;2023-03-14T02:28:05;3.35;;;1.48;;
10811;SDS011;5458;51.496;7.334;2023-03-14T02:30:31;2.13;;;1.00;;
10811;SDS011;5458;51.496;7.334;2023-03-14T02:33:03;3.17;;;1.55;;
10811;SDS011;5458;51.496;7.334;2023-03-14T02:35:53;2.58;;;1.25;;
10811;SDS011;5458;51.496;7.334;2023-03-14T02:38:27;4.22;;;1.27;;
10811;SDS011;5458;51.496;7.334;2023-03-14T02:41:17;4.40;;;1.40;;
10811;SDS011;5458;51.496;7.334;2023-03-14T02:43:43;3.83;;;1.63;;
10811;SDS011;5458;51.496;7.334;2023-03-14T02:46:13;4.68;;;1.60;;
10811;SDS011;5458;51.496;7.334;2023-03-14T02:48:57;7.82;;;1.65;;
10811;SDS011;5458;51.496;7.334;2023-03-14T02:51:36;5.80;;;1.73;;
10811;SDS011;5458;51.496;7.334;2023-03-14T02:54:03;4.28;;;1.33;;
10811;SDS011;5458;51.496;7.334;2023-03-14T02:56:28;4.05;;;1.63;;
10811;SDS011;5458;51.496;7.334;2023-03-14T02:58:54;6.82;;;1.60;;
10811;SDS011;5458;51.496;7.334;2023-03-14T03:01:20;4.03;;;1.30;;
10811;SDS011;5458;51.496;7.334;2023-03-14T03:03:45;5.65;;;1.95;;
10811;SDS011;5458;51.496;7.334;2023-03-14T03:06:11;7.38;;;1.77;;
10811;SDS011;5458;51.496;7.334;2023-03-14T03:08:36;3.13;;;1.60;;
10811;SDS011;5458;51.496;7.334;2023-03-14T03:11:03;4.68;;;1.58;;
10811;SDS011;5458;51.496;7.334;2023-03-14T03:13:29;5.80;;;1.92;;
10811;SDS011;5458;51.496;7.334;2023-03-14T03:15:54;3.63;;;1.65;;
10811;SDS011;5458;51.496;7.334;2023-03-14T03:18:20;3.58;;;1.52;;
10811;SDS011;5458;51.496;7.334;2023-03-14T03:20:46;4.35;;;2.00;;
10811;SDS011;5458;51.496;7.334;2023-03-14T03:23:12;4.45;;;1.70;;
10811;SDS011;5458;51.496;7.334;2023-03-14T03:25:38;4.45;;;1.77;;
10811;SDS011;5458;51.496;7.334;2023-03-14T03:28:03;4.57;;;1.60;;
10811;SDS011;5458;51.496;7.334;2023-03-14T03:30:33;6.25;;;2.15;;
10811;SDS011;5458;51.496;7.334;2023-03-14T03:33:01;5.63;;;1.70;;
10811;SDS011;5458;51.496;7.334;2023-03-14T03:35:27;4.32;;;1.40;;
10811;SDS011;5458;51.496;7.334;2023-03-14T03:37:53;5.07;;;1.80;;
10811;SDS011;5458;51.496;7.334;2023-03-14T03:40:18;2.70;;;1.40;;
10811;SDS011;5458;51.496;7.334;2023-03-14T03:42:44;6.47;;;1.90;;
10811;SDS011;5458;51.496;7.334;2023-03-14T03:45:09;4.95;;;1.92;;
10811;SDS011;5458;51.496;7.334;2023-03-14T03:47:35;4.70;;;1.77;;
10811;SDS011;5458;51.496;7.334;2023-03-14T03:50:01;5.90;;;1.90;;
10811;SDS011;5458;51.496;7.334;2023-03-14T03:52:27;4.75;;;1.50;;
10811;SDS011;5458;51.496;7.334;2023-03-14T03:54:53;6.63;;;1.75;;
10811;SDS011;5458;51.496;7.334;2023-03-14T03:57:19;3.30;;;1.50;;
10811;SDS011;5458;51.496;7.334;2023-03-14T03:59:45;3.63;;;1.92;;
10811;SDS011;5458;51.496;7.334;2023-03-14T04:02:10;6.50;;;1.75;;
10811;SDS011;5458;51.496;7.334;2023-03-14T04:04:36;6.97;;;1.58;;
10811;SDS011;5458;51.496;7.334;2023-03-14T04:07:03;5.25;;;2.45;;
10811;SDS011;5458;51.496;7.334;2023-03-14T04:09:29;5.80;;;1.65;;
10811;SDS011;5458;51.496;7.334;2023-03-14T04:11:55;3.22;;;1.70;;
10811;SDS011;5458;51.496;7.334;2023-03-14T04:14:21;3.22;;;1.60;;
10811;SDS011;5458;51.496;7.334;2023-03-14T04:16:47;2.97;;;1.40;;
10811;SDS011;5458;51.496;7.334;2023-03-14T04:19:12;5.97;;;1.80;;
10811;SDS011;5458;51.496;7.334;2023-03-14T04:21:38;5.22;;;1.60;;
10811;SDS011;5458;51.496;7.334;2023-03-14T04:24:09;6.10;;;1.50;;
10811;SDS011;5458;51.496;7.334;2023-03-14T04:26:35;3.38;;;1.50;;
10811;SDS011;5458;51.496;7.334;2023-03-14T04:29:01;2.55;;;1.17;;
10811;SDS011;5458;51.496;7.334;2023-03-14T04:31:27;3.30;;;2.00;;
10811;SDS011;5458;51.496;7.334;2023-03-14T04:33:53;1.45;;;1.23;;
10811;SDS011;5458;51.496;7.334;2023-03-14T04:36:18;2.28;;;0.85;;
10811;SDS011;5458;51.496;7.334;2023-03-14T04:38:44;2.58;;;0.90;;
10811;SDS011;5458;51.496;7.334;2023-03-14T04:41:09;2.20;;;0.90;;
10811;SDS011;5458;51.496;7.334;2023-03-14T04:43:35;2.55;;;0.88;;
10811;SDS011;5458;51.496;7.334;2023-03-14T04:46:01;1.65;;;1.25;;
10811;SDS011;5458;51.496;7.334;2023-03-14T04:48:27;1.00;;;0.68;;
10811;SDS011;5458;51.496;7.334;2023-03-14T04:50:53;1.02;;;0.82;;
10811;SDS011;5458;51.496;7.334;2023-03-14T04:53:19;1.90;;;0.80;;
10811;SDS011;5458;51.496;7.334;2023-03-14T04:55:51;0.90;;;0.80;;
10811;SDS011;5458;51.496;7.334;2023-03-14T04:58:18;1.73;;;1.00;;
10811;SDS011;5458;51.496;7.334;2023-03-14T05:00:44;1.52;;;1.00;;
10811;SDS011;5458;51.496;7.334;2023-03-14T05:03:10;3.75;;;1.02;;
10811;SDS011;5458;51.496;7.334;2023-03-14T05:05:36;3.42;;;1.20;;
10811;SDS011;5458;51.496;7.334;2023-03-14T05:08:02;2.58;;;0.82;;
10811;SDS011;5458;51.496;7.334;2023-03-14T05:10:27;0.70;;;0.70;;
10811;SDS011;5458;51.496;7.334;2023-03-14T05:12:53;1.05;;;0.70;;
10811;SDS011;5458;51.496;7.334;2023-03-14T05:15:19;1.05;;;0.80;;
10811;SDS011;5458;51.496;7.334;2023-03-14T05:17:44;1.35;;;0.70;;
10811;SDS011;5458;51.496;7.334;2023-03-14T05:20:11;1.13;;;0.50;;
10811;SDS011;5458;51.496;7.334;2023-03-14T05:22:37;0.60;;;0.60;;
10811;SDS011;5458;51.496;7.334;2023-03-14T05:25:04;0.73;;;0.68;;
10811;SDS011;5458;51.496;7.334;2023-03-14T05:27:31;0.60;;;0.60;;
10811;SDS011;5458;51.496;7.334;2023-03-14T05:29:56;1.85;;;0.70;;
10811;SDS011;5458;51.496;7.334;2023-03-14T05:32:22;1.35;;;0.70;;
10811;SDS011;5458;51.496;7.334;2023-03-14T05:34:47;0.68;;;0.60;;
10811;SDS011;5458;51.496;7.334;2023-03-14T05:37:13;0.70;;;0.70;;
10811;SDS011;5458;51.496;7.334;2023-03-14T05:39:39;0.82;;;0.60;;
10811;SDS011;5458;51.496;7.334;2023-03-14T05:42:04;0.88;;;0.70;;
10811;SDS011;5458;51.496;7.334;2023-03-14T05:44:30;0.88;;;0.70;;
10811;SDS011;5458;51.496;7.334;2023-03-14T05:46:55;2.17;;;0.60;;
10811;SDS011;5458;51.496;7.334;2023-03-14T05:49:21;1.05;;;0.85;;
10811;SDS011;5458;51.496;7.334;2023-03-14T05:51:47;0.70;;;0.70;;
10811;SDS011;5458;51.496;7.334;2023-03-14T05:54:12;0.90;;;0.70;;
10811;SDS011;5458;51.496;7.334;2023-03-14T05:56:38;1.00;;;0.88;;
10811;SDS011;5458;51.496;7.334;2023-03-14T05:59:03;0.70;;;0.70;;
10811;SDS011;5458;51.496;7.334;2023-03-14T06:01:29;1.58;;;1.02;;
10811;SDS011;5458;51.496;7.334;2023-03-14T06:03:55;1.33;;;0.90;;
10811;SDS011;5458;51.496;7.334;2023-03-14T06:06:21;1.55;;;1.05;;
10811;SDS011;5458;51.496;7.334;2023-03-14T06:08:46;1.23;;;1.10;;
10811;SDS011;5458;51.496;7.334;2023-03-14T06:11:12;0.88;;;0.88;;
10811;SDS011;5458;51.496;7.334;2023-03-14T06:13:37;1.25;;;1.15;;
10811;SDS011;5458;51.496;7.334;2023-03-14T06:16:03;2.03;;;1.23;;
10811;SDS011;5458;51.496;7.334;2023-03-14T06:18:29;2.45;;;1.48;;
10811;SDS011;5458;51.496;7.334;2023-03-14T06:20:55;3.53;;;1.60;;
10811;SDS011;5458;51.496;7.334;2023-03-14T06:23:21;3.75;;;1.60;;
10811;SDS011;5458;51.496;7.334;2023-03-14T06:25:47;2.92;;;1.60;;
10811;SDS011;5458;51.496;7.334;2023-03-14T06:28:13;3.20;;;1.60;;
10811;SDS011;5458;51.496;7.334;2023-03-14T06:30:39;2.92;;;1.60;;
10811;SDS011;5458;51.496;7.334;2023-03-14T06:33:04;1.77;;;1.42;;
10811;SDS011;5458;51.496;7.334;2023-03-14T06:35:30;2.25;;;1.52;;
10811;SDS011;5458;51.496;7.334;2023-03-14T06:37:56;4.40;;;1.88;;
10811;SDS011;5458;51.496;7.334;2023-03-14T06:40:21;4.38;;;1.30;;
10811;SDS011;5458;51.496;7.334;2023-03-14T06:42:47;3.10;;;1.45;;
10811;SDS011;5458;51.496;7.334;2023-03-14T06:45:13;2.97;;;1.50;;
10811;SDS011;5458;51.496;7.334;2023-03-14T06:47:39;3.42;;;1.80;;
10811;SDS011;5458;51.496;7.334;2023-03-14T06:50:05;1.55;;;1.17;;
10811;SDS011;5458;51.496;7.334;2023-03-14T06:52:32;2.58;;;1.10;;
10811;SDS011;5458;51.496;7.334;2023-03-14T06:54:58;1.33;;;1.20;;
10811;SDS011;5458;51.496;7.334;2023-03-14T06:57:23;2.13;;;1.08;;
10811;SDS011;5458;51.496;7.334;2023-03-14T06:59:49;2.92;;;1.10;;
10811;SDS011;5458;51.496;7.334;2023-03-14T07:02:15;1.00;;;1.00;;
10811;SDS011;5458;51.496;7.334;2023-03-14T07:04:40;1.02;;;0.93;;
10811;SDS011;5458;51.496;7.334;2023-03-14T07:07:06;4.38;;;1.40;;
10811;SDS011;5458;51.496;7.334;2023-03-14T07:09:32;1.35;;;1.20;;
10811;SDS011;5458;51.496;7.334;2023-03-14T07:11:58;2.15;;;1.27;;
10811;SDS011;5458;51.496;7.334;2023-03-14T07:14:24;1.33;;;0.98;;
10811;SDS011;5458;51.496;7.334;2023-03-14T07:16:49;1.50;;;1.40;;
10811;SDS011;5458;51.496;7.334;2023-03-14T07:19:15;1.20;;;1.10;;
10811;SDS011;5458;51.496;7.334;2023-03-14T07:21:40;1.00;;;1.00;;
10811;SDS011;5458;51.496;7.334;2023-03-14T07:24:06;1.48;;;1.23;;
10811;SDS011;5458;51.496;7.334;2023-03-14T07:26:32;1.95;;;1.27;;
10811;SDS011;5458;51.496;7.334;2023-03-14T07:28:57;1.98;;;1.13;;
10811;SDS011;5458;51.496;7.334;2023-03-14T07:31:23;0.85;;;0.85;;
10811;SDS011;5458;51.496;7.334;2023-03-14T07:33:49;1.00;;;1.00;;
10811;SDS011;5458;51.496;7.334;2023-03-14T07:36:14;4.55;;;1.30;;
10811;SDS011;5458;51.496;7.334;2023-03-14T07:38:41;2.58;;;1.23;;
10811;SDS011;5458;51.496;7.334;2023-03-14T07:41:06;1.25;;;1.17;;
10811;SDS011;5458;51.496;7.334;2023-03-14T07:43:32;1.15;;;0.98;;
10811;SDS011;5458;51.496;7.334;2023-03-14T07:45:59;1.48;;;1.20;;
10811;SDS011;5458;51.496;7.334;2023-03-14T07:48:25;1.20;;;0.90;;
10811;SDS011;5458;51.496;7.334;2023-03-14T07:50:52;1.40;;;1.30;;
10811;SDS011;5458;51.496;7.334;2023-03-14T07:53:18;1.17;;;0.90;;
10811;SDS011;5458;51.496;7.334;2023-03-14T07:55:44;1.63;;;1.52;;
10811;SDS011;5458;51.496;7.334;2023-03-14T07:58:10;1.60;;;1.50;;
10811;SDS011;5458;51.496;7.334;2023-03-14T08:00:36;2.65;;;1.50;;
10811;SDS011;5458;51.496;7.334;2023-03-14T08:03:02;1.33;;;1.20;;
10811;SDS011;5458;51.496;7.334;2023-03-14T08:05:28;1.77;;;1.67;;
10811;SDS011;5458;51.496;7.334;2023-03-14T08:07:54;1.55;;;1.45;;
10811;SDS011;5458;51.496;7.334;2023-03-14T08:10:19;3.15;;;1.42;;
10811;SDS011;5458;51.496;7.334;2023-03-14T08:12:51;1.40;;;1.38;;
10811;SDS011;5458;51.496;7.334;2023-03-14T08:15:20;1.67;;;1.58;;
10811;SDS011;5458;51.496;7.334;2023-03-14T08:17:46;1.90;;;1.58;;
10811;SDS011;5458;51.496;7.334;2023-03-14T08:20:16;2.63;;;1.92;;
10811;SDS011;5458;51.496;7.334;2023-03-14T08:22:45;1.90;;;1.80;;
10811;SDS011;5458;51.496;7.334;2023-03-14T08:25:11;1.60;;;1.45;;
10811;SDS011;5458;51.496;7.334;2023-03-14T08:27:36;2.35;;;2.17;;
10811;SDS011;5458;51.496;7.334;2023-03-14T08:30:04;2.00;;;1.80;;
10811;SDS011;5458;51.496;7.334;2023-03-14T08:32:31;1.75;;;1.65;;
10811;SDS011;5458;51.496;7.334;2023-03-14T08:34:57;2.10;;;2.00;;
10811;SDS011;5458;51.496;7.334;2023-03-14T08:37:22;2.75;;;2.55;;
10811;SDS011;5458;51.496;7.334;2023-03-14T08:39:49;2.38;;;2.13;;
10811;SDS011;5458;51.496;7.334;2023-03-14T08:42:16;2.50;;;1.88;;
10811;SDS011;5458;51.496;7.334;2023-03-14T08:44:42;2.30;;;1.73;;
10811;SDS011;5458;51.496;7.334;2023-03-14T08:47:08;1.70;;;1.60;;
10811;SDS011;5458;51.496;7.334;2023-03-14T08:49:33;2.00;;;1.90;;
10811;SDS011;5458;51.496;7.334;2023-03-14T08:52:00;1.75;;;1.65;;
10811;SDS011;5458;51.496;7.334;2023-03-14T08:54:27;2.10;;;1.73;;
10811;SDS011;5458;51.496;7.334;2023-03-14T08:56:53;3.15;;;1.60;;
10811;SDS011;5458;51.496;7.334;2023-03-14T08:59:18;2.42;;;1.60;;
10811;SDS011;5458;51.496;7.334;2023-03-14T09:01:44;1.23;;;1.23;;
10811;SDS011;5458;51.496;7.334;2023-03-14T09:04:09;1.30;;;1.20;;
10811;SDS011;5458;51.496;7.334;2023-03-14T09:06:35;1.50;;;1.40;;
10811;SDS011;5458;51.496;7.334;2023-03-14T09:09:01;1.75;;;1.10;;
10811;SDS011;5458;51.496;7.334;2023-03-14T09:11:27;1.48;;;1.30;;
10811;SDS011;5458;51.496;7.334;2023-03-14T09:13:54;1.45;;;1.20;;
10811;SDS011;5458;51.496;7.334;2023-03-14T09:16:25;1.35;;;1.25;;
10811;SDS011;5458;51.496;7.334;2023-03-14T09:19:09;2.03;;;1.83;;
10811;SDS011;5458;51.496;7.334;2023-03-14T09:21:38;1.90;;;1.52;;
10811;SDS011;5458;51.496;7.334;2023-03-14T09:24:04;1.88;;;1.50;;
10811;SDS011;5458;51.496;7.334;2023-03-14T09:26:33;1.58;;;1.40;;
10811;SDS011;5458;51.496;7.334;2023-03-14T09:29:07;1.95;;;1.52;;
10811;SDS011;5458;51.496;7.334;2023-03-14T09:31:33;2.70;;;1.60;;
10811;SDS011;5458;51.496;7.334;2023-03-14T09:34:02;1.80;;;1.35;;
10811;SDS011;5458;51.496;7.334;2023-03-14T09:36:29;1.73;;;1.35;;
10811;SDS011;5458;51.496;7.334;2023-03-14T09:39:07;2.13;;;1.77;;
10811;SDS011;5458;51.496;7.334;2023-03-14T09:41:49;1.52;;;1.42;;
10811;SDS011;5458;51.496;7.334;2023-03-14T09:46:50;1.52;;;1.42;;
10811;SDS011;5458;51.496;7.334;2023-03-14T09:53:00;1.00;;;0.80;;
10811;SDS011;5458;51.496;7.334;2023-03-14T09:57:46;0.82;;;0.82;;
10811;SDS011;5458;51.496;7.334;2023-03-14T10:00:20;2.50;;;0.98;;
10811;SDS011;5458;51.496;7.334;2023-03-14T10:02:54;1.40;;;0.90;;
10811;SDS011;5458;51.496;7.334;2023-03-14T10:05:23;0.80;;;0.80;;
10811;SDS011;5458;51.496;7.334;2023-03-14T10:07:50;1.25;;;0.80;;
10811;SDS011;5458;51.496;7.334;2023-03-14T10:10:17;0.73;;;0.73;;
10811;SDS011;5458;51.496;7.334;2023-03-14T10:12:45;1.52;;;0.95;;
10811;SDS011;5458;51.496;7.334;2023-03-14T10:15:13;1.45;;;1.35;;
10811;SDS011;5458;51.496;7.334;2023-03-14T10:17:52;1.20;;;1.10;;
10811;SDS011;5458;51.496;7.334;2023-03-14T10:22:57;1.10;;;1.00;;
10811;SDS011;5458;51.496;7.334;2023-03-14T10:25:29;2.10;;;1.00;;
10811;SDS011;5458;51.496;7.334;2023-03-14T10:27:56;0.80;;;0.80;;
10811;SDS011;5458;51.496;7.334;2023-03-14T10:30:30;1.35;;;1.10;;
10811;SDS011;5458;51.496;7.334;2023-03-14T10:33:19;1.25;;;1.20;;
10811;SDS011;5458;51.496;7.334;2023-03-14T10:35:51;2.17;;;1.02;;
10811;SDS011;5458;51.496;7.334;2023-03-14T10:38:22;1.30;;;1.10;;
10811;SDS011;5458;51.496;7.334;2023-03-14T10:40:52;2.58;;;1.00;;
10811;SDS011;5458;51.496;7.334;2023-03-14T10:43:22;1.30;;;1.17;;
10811;SDS011;5458;51.496;7.334;2023-03-14T10:48:41;1.00;;;1.00;;
10811;SDS011;5458;51.496;7.334;2023-03-14T10:53:49;1.33;;;1.05;;
10811;SDS011;5458;51.496;7.334;2023-03-14T10:56:21;0.93;;;0.93;;
10811;SDS011;5458;51.496;7.334;2023-03-14T10:58:57;1.88;;;1.25;;
10811;SDS011;5458;51.496;7.334;2023-03-14T11:04:15;1.98;;;1.05;;
10811;SDS011;5458;51.496;7.334;2023-03-14T11:09:42;2.50;;;1.35;;
10811;SDS011;5458;51.496;7.334;2023-03-14T11:15:27;2.10;;;1.13;;
10811;SDS011;5458;51.496;7.334;2023-03-14T11:21:02;1.20;;;1.10;;
10811;SDS011;5458;51.496;7.334;2023-03-14T11:29:21;2.03;;;1.80;;
10811;SDS011;5458;51.496;7.334;2023-03-14T11:31:55;2.08;;;1.50;;
10811;SDS011;5458;51.496;7.334;2023-03-14T11:34:27;1.60;;;1.20;;
10811;SDS011;5458;51.496;7.334;2023-03-14T11:37:03;1.63;;;1.20;;
10811;SDS011;5458;51.496;7.334;2023-03-14T11:39:42;0.95;;;0.95;;
10811;SDS011;5458;51.496;7.334;2023-03-14T11:42:16;1.45;;;1.20;;
10811;SDS011;5458;51.496;7.334;2023-03-14T11:44:44;1.25;;;1.02;;
10811;SDS011;5458;51.496;7.334;2023-03-14T11:47:15;2.50;;;1.13;;
10811;SDS011;5458;51.496;7.334;2023-03-14T11:49:58;0.88;;;0.88;;
10811;SDS011;5458;51.496;7.334;2023-03-14T11:52:41;1.05;;;1.00;;
10811;SDS011;5458;51.496;7.334;2023-03-14T11:57:59;1.77;;;1.15;;
10811;SDS011;5458;51.496;7.334;2023-03-14T12:00:36;0.95;;;0.95;;
10811;SDS011;5458;51.496;7.334;2023-03-14T12:05:56;1.42;;;0.88;;
10811;SDS011;5458;51.496;7.334;2023-03-14T12:13:56;1.08;;;1.08;;
10811;SDS011;5458;51.496;7.334;2023-03-14T12:18:48;2.65;;;1.35;;
10811;SDS011;5458;51.496;7.334;2023-03-14T12:21:13;2.72;;;1.30;;
10811;SDS011;5458;51.496;7.334;2023-03-14T12:23:48;2.00;;;1.50;;
10811;SDS011;5458;51.496;7.334;2023-03-14T12:26:16;2.72;;;2.35;;
10811;SDS011;5458;51.496;7.334;2023-03-14T12:28:48;2.38;;;1.30;;
10811;SDS011;5458;51.496;7.334;2023-03-14T12:34:28;3.75;;;1.38;;
10811;SDS011;5458;51.496;7.334;2023-03-14T12:47:08;1.90;;;1.80;;
10811;SDS011;5458;51.496;7.334;2023-03-14T12:49:42;2.22;;;1.40;;
10811;SDS011;5458;51.496;7.334;2023-03-14T12:55:02;1.50;;;1.40;;
10811;SDS011;5458;51.496;7.334;2023-03-14T12:57:54;3.42;;;2.33;;
10811;SDS011;5458;51.496;7.334;2023-03-14T13:00:30;4.55;;;1.80;;
10811;SDS011;5458;51.496;7.334;2023-03-14T13:05:51;3.67;;;1.92;;
10811;SDS011;5458;51.496;7.334;2023-03-14T13:08:43;7.18;;;2.40;;
10811;SDS011;5458;51.496;7.334;2023-03-14T13:11:12;5.38;;;2.05;;
10811;SDS011;5458;51.496;7.334;2023-03-14T13:13:47;6.90;;;2.65;;
10811;SDS011;5458;51.496;7.334;2023-03-14T13:16:23;6.72;;;2.47;;
10811;SDS011;5458;51.496;7.334;2023-03-14T13:18:50;7.70;;;2.53;;
10811;SDS011;5458;51.496;7.334;2023-03-14T13:21:25;5.95;;;2.20;;
10811;SDS011;5458;51.496;7.334;2023-03-14T13:26:46;5.65;;;2.63;;
10811;SDS011;5458;51.496;7.334;2023-03-14T13:29:22;7.65;;;3.25;;
10811;SDS011;5458;51.496;7.334;2023-03-14T13:31:54;8.52;;;2.28;;
10811;SDS011;5458;51.496;7.334;2023-03-14T13:34:24;8.88;;;3.08;;
10811;SDS011;5458;51.496;7.334;2023-03-14T13:36:54;8.15;;;2.95;;
10811;SDS011;5458;51.496;7.334;2023-03-14T13:39:21;8.40;;;2.92;;
10811;SDS011;5458;51.496;7.334;2023-03-14T13:41:50;8.65;;;2.60;;
10811;SDS011;5458;51.496;7.334;2023-03-14T13:44:17;8.30;;;3.28;;
10811;SDS011;5458;51.496;7.334;2023-03-14T13:46:58;8.70;;;3.17;;
10811;SDS011;5458;51.496;7.334;2023-03-14T13:49:26;8.38;;;3.35;;
10811;SDS011;5458;51.496;7.334;2023-03-14T13:51:56;12.85;;;3.00;;
10811;SDS011;5458;51.496;7.334;2023-03-14T13:54:22;7.97;;;3.30;;
10811;SDS011;5458;51.496;7.334;2023-03-14T13:56:48;9.15;;;3.55;;
10811;SDS011;5458;51.496;7.334;2023-03-14T13:59:24;8.65;;;3.30;;
10811;SDS011;5458;51.496;7.334;2023-03-14T14:01:52;10.75;;;3.60;;
10811;SDS011;5458;51.496;7.334;2023-03-14T14:04:19;7.93;;;3.10;;
10811;SDS011;5458;51.496;7.334;2023-03-14T14:06:47;9.20;;;2.90;;
10811;SDS011;5458;51.496;7.334;2023-03-14T14:09:18;9.48;;;3.13;;
10811;SDS011;5458;51.496;7.334;2023-03-14T14:11:52;7.03;;;2.75;;
10811;SDS011;5458;51.496;7.334;2023-03-14T14:14:44;14.00;;;4.13;;
10811;SDS011;5458;51.496;7.334;2023-03-14T14:17:12;11.20;;;3.50;;
10811;SDS011;5458;51.496;7.334;2023-03-14T14:19:42;8.45;;;3.30;;
10811;SDS011;5458;51.496;7.334;2023-03-14T14:22:09;8.88;;;3.47;;
10811;SDS011;5458;51.496;7.334;2023-03-14T14:24:36;10.40;;;3.15;;
10811;SDS011;5458;51.496;7.334;2023-03-14T14:29:38;11.82;;;3.10;;
10811;SDS011;5458;51.496;7.334;2023-03-14T14:34:39;9.82;;;3.15;;
10811;SDS011;5458;51.496;7.334;2023-03-14T14:39:49;9.20;;;2.88;;
10811;SDS011;5458;51.496;7.334;2023-03-14T14:42:18;8.88;;;2.28;;
10811;SDS011;5458;51.496;7.334;2023-03-14T14:44:47;10.82;;;3.08;;
10811;SDS011;5458;51.496;7.334;2023-03-14T14:47:16;12.43;;;2.90;;
10811;SDS011;5458;51.496;7.334;2023-03-14T14:49:44;8.23;;;2.60;;
10811;SDS011;5458;51.496;7.334;2023-03-14T14:52:14;8.77;;;2.33;;
10811;SDS011;5458;51.496;7.334;2023-03-14T14:54:46;11.10;;;2.55;;
10811;SDS011;5458;51.496;7.334;2023-03-14T14:57:19;11.43;;;2.70;;
10811;SDS011;5458;51.496;7.334;2023-03-14T14:59:50;11.30;;;2.90;;
10811;SDS011;5458;51.496;7.334;2023-03-14T15:02:25;11.07;;;2.33;;
10811;SDS011;5458;51.496;7.334;2023-03-14T15:04:52;7.82;;;2.10;;
10811;SDS011;5458;51.496;7.334;2023-03-14T15:07:18;10.15;;;2.50;;
10811;SDS011;5458;51.496;7.334;2023-03-14T15:09:43;8.98;;;2.28;;
10811;SDS011;5458;51.496;7.334;2023-03-14T15:12:09;9.73;;;2.10;;
10811;SDS011;5458;51.496;7.334;2023-03-14T15:14:35;6.25;;;1.95;;
10811;SDS011;5458;51.496;7.334;2023-03-14T15:17:00;8.68;;;2.35;;
10811;SDS011;5458;51.496;7.334;2023-03-14T15:19:26;7.10;;;2.88;;
10811;SDS011;5458;51.496;7.334;2023-03-14T15:21:54;8.55;;;2.58;;
10811;SDS011;5458;51.496;7.334;2023-03-14T15:24:20;5.05;;;2.33;;
10811;SDS011;5458;51.496;7.334;2023-03-14T15:26:46;10.60;;;2.60;;
10811;SDS011;5458;51.496;7.334;2023-03-14T15:29:12;7.22;;;2.13;;
10811;SDS011;5458;51.496;7.334;2023-03-14T15:31:40;6.90;;;2.25;;
10811;SDS011;5458;51.496;7.334;2023-03-14T15:34:08;7.68;;;2.50;;
10811;SDS011;5458;51.496;7.334;2023-03-14T15:36:34;7.18;;;2.47;;
10811;SDS011;5458;51.496;7.334;2023-03-14T15:39:03;10.27;;;3.00;;
10811;SDS011;5458;51.496;7.334;2023-03-14T15:41:31;5.13;;;2.10;;
10811;SDS011;5458;51.496;7.334;2023-03-14T15:43:56;10.00;;;2.15;;
10811;SDS011;5458;51.496;7.334;2023-03-14T15:46:23;6.53;;;2.22;;
10811;SDS011;5458;51.496;7.334;2023-03-14T15:48:49;8.02;;;2.78;;
10811;SDS011;5458;51.496;7.334;2023-03-14T15:51:15;6.53;;;2.92;;
10811;SDS011;5458;51.496;7.334;2023-03-14T15:53:42;6.72;;;2.08;;
10811;SDS011;5458;51.496;7.334;2023-03-14T15:56:12;5.20;;;2.08;;
10811;SDS011;5458;51.496;7.334;2023-03-14T15:58:40;6.78;;;2.13;;
10811;SDS011;5458;51.496;7.334;2023-03-14T16:01:06;5.88;;;2.17;;
10811;SDS011;5458;51.496;7.334;2023-03-14T16:03:36;3.65;;;1.90;;
10811;SDS011;5458;51.496;7.334;2023-03-14T16:06:01;8.05;;;2.10;;
10811;SDS011;5458;51.496;7.334;2023-03-14T16:08:27;4.53;;;2.10;;
10811;SDS011;5458;51.496;7.334;2023-03-14T16:10:59;5.93;;;2.05;;
10811;SDS011;5458;51.496;7.334;2023-03-14T16:13:25;6.03;;;1.60;;
10811;SDS011;5458;51.496;7.334;2023-03-14T16:15:59;3.42;;;1.65;;
10811;SDS011;5458;51.496;7.334;2023-03-14T16:18:30;3.33;;;1.77;;
10811;SDS011;5458;51.496;7.334;2023-03-14T16:20:58;2.03;;;1.23;;
10811;SDS011;5458;51.496;7.334;2023-03-14T16:23:25;3.30;;;1.65;;
10811;SDS011;5458;51.496;7.334;2023-03-14T16:25:52;3.60;;;1.52;;
10811;SDS011;5458;51.496;7.334;2023-03-14T16:28:19;6.07;;;1.90;;
10811;SDS011;5458;51.496;7.334;2023-03-14T16:30:45;2.42;;;1.40;;
10811;SDS011;5458;51.496;7.334;2023-03-14T16:33:11;3.00;;;1.70;;